sensor_id;sensor_type;location;lat;lon;timestamp;P1;durP1;ratioP1;P2;durP2;ratioP2
33634;SDS011;19972;54.360;10.076;2022-08-04T00:00:37;15.57;;;6.97;;
33634;SDS011;19972;54.360;10.076;2022-08-04T00:06:29;12.60;;;6.68;;
33634;SDS011;19972;54.360;10.076;2022-08-04T00:12:09;13.45;;;6.95;;
33634;SDS011;19972;54.360;10.076;2022-08-04T00:14:38;13.43;;;6.38;;
33634;SDS011;19972;54.360;10.076;2022-08-04T00:17:11;10.20;;;6.10;;
33634;SDS011;19972;54.360;10.076;2022-08-04T00:22:09;14.27;;;6.07;;
33634;SDS011;19972;54.360;10.076;2022-08-04T00:24:38;10.98;;;5.63;;
33634;SDS011;19972;54.360;10.076;2022-08-04T00:29:34;12.73;;;6.18;;
33634;SDS011;19972;54.360;10.076;2022-08-04T00:32:03;15.00;;;5.72;;
33634;SDS011;19972;54.360;10.076;2022-08-04T00:34:31;13.68;;;5.78;;
33634;SDS011;19972;54.360;10.076;2022-08-04T00:36:59;11.07;;;5.80;;
33634;SDS011;19972;54.360;10.076;2022-08-04T00:39:26;13.27;;;6.28;;
33634;SDS011;19972;54.360;10.076;2022-08-04T00:50:19;11.32;;;6.07;;
33634;SDS011;19972;54.360;10.076;2022-08-04T00:53:00;16.65;;;6.13;;
33634;SDS011;19972;54.360;10.076;2022-08-04T01:01:04;11.80;;;6.43;;
33634;SDS011;19972;54.360;10.076;2022-08-04T01:03:41;15.75;;;6.80;;
33634;SDS011;19972;54.360;10.076;2022-08-04T01:27:00;15.88;;;6.88;;
33634;SDS011;19972;54.360;10.076;2022-08-04T01:29:39;20.48;;;8.10;;
33634;SDS011;19972;54.360;10.076;2022-08-04T01:35:02;16.92;;;6.75;;
33634;SDS011;19972;54.360;10.076;2022-08-04T01:40:43;20.83;;;6.93;;
33634;SDS011;19972;54.360;10.076;2022-08-04T01:43:12;18.38;;;7.13;;
33634;SDS011;19972;54.360;10.076;2022-08-04T01:45:40;16.92;;;7.65;;
33634;SDS011;19972;54.360;10.076;2022-08-04T01:48:08;17.92;;;8.32;;
33634;SDS011;19972;54.360;10.076;2022-08-04T01:50:38;16.15;;;7.60;;
33634;SDS011;19972;54.360;10.076;2022-08-04T01:53:08;13.93;;;8.02;;
33634;SDS011;19972;54.360;10.076;2022-08-04T01:55:34;13.65;;;7.05;;
33634;SDS011;19972;54.360;10.076;2022-08-04T01:58:20;16.33;;;7.40;;
33634;SDS011;19972;54.360;10.076;2022-08-04T02:00:49;13.63;;;7.38;;
33634;SDS011;19972;54.360;10.076;2022-08-04T02:03:22;17.38;;;7.53;;
33634;SDS011;19972;54.360;10.076;2022-08-04T02:06:17;13.75;;;7.20;;
33634;SDS011;19972;54.360;10.076;2022-08-04T02:14:29;14.05;;;7.30;;
33634;SDS011;19972;54.360;10.076;2022-08-04T02:17:10;17.27;;;6.97;;
33634;SDS011;19972;54.360;10.076;2022-08-04T02:22:51;16.50;;;7.63;;
33634;SDS011;19972;54.360;10.076;2022-08-04T02:25:25;12.55;;;7.05;;
33634;SDS011;19972;54.360;10.076;2022-08-04T02:30:42;16.50;;;6.97;;
33634;SDS011;19972;54.360;10.076;2022-08-04T02:33:34;17.08;;;7.00;;
33634;SDS011;19972;54.360;10.076;2022-08-04T02:36:22;17.52;;;7.10;;
33634;SDS011;19972;54.360;10.076;2022-08-04T02:38:58;18.48;;;7.85;;
33634;SDS011;19972;54.360;10.076;2022-08-04T02:41:28;16.75;;;7.40;;
33634;SDS011;19972;54.360;10.076;2022-08-04T02:44:05;10.30;;;6.70;;
33634;SDS011;19972;54.360;10.076;2022-08-04T02:46:34;12.38;;;6.22;;
33634;SDS011;19972;54.360;10.076;2022-08-04T02:49:02;16.73;;;6.95;;
33634;SDS011;19972;54.360;10.076;2022-08-04T02:51:32;10.15;;;6.40;;
33634;SDS011;19972;54.360;10.076;2022-08-04T02:54:03;10.75;;;5.90;;
33634;SDS011;19972;54.360;10.076;2022-08-04T02:56:32;11.82;;;6.65;;
33634;SDS011;19972;54.360;10.076;2022-08-04T02:59:05;16.75;;;7.05;;
33634;SDS011;19972;54.360;10.076;2022-08-04T03:01:36;13.02;;;6.45;;
33634;SDS011;19972;54.360;10.076;2022-08-04T03:07:19;17.63;;;7.18;;
33634;SDS011;19972;54.360;10.076;2022-08-04T03:30:13;11.90;;;6.60;;
33634;SDS011;19972;54.360;10.076;2022-08-04T03:35:45;12.98;;;6.95;;
33634;SDS011;19972;54.360;10.076;2022-08-04T03:49:57;14.10;;;6.60;;
33634;SDS011;19972;54.360;10.076;2022-08-04T03:55:29;10.75;;;6.18;;
33634;SDS011;19972;54.360;10.076;2022-08-04T04:36:24;11.32;;;5.35;;
33634;SDS011;19972;54.360;10.076;2022-08-04T04:53:08;13.60;;;4.63;;
33634;SDS011;19972;54.360;10.076;2022-08-04T04:55:43;7.97;;;4.40;;
33634;SDS011;19972;54.360;10.076;2022-08-04T04:58:16;6.20;;;4.00;;
33634;SDS011;19972;54.360;10.076;2022-08-04T05:12:21;17.52;;;8.73;;
33634;SDS011;19972;54.360;10.076;2022-08-04T05:15:10;14.63;;;5.95;;
33634;SDS011;19972;54.360;10.076;2022-08-04T05:17:41;15.18;;;4.57;;
33634;SDS011;19972;54.360;10.076;2022-08-04T05:20:19;13.50;;;5.28;;
33634;SDS011;19972;54.360;10.076;2022-08-04T05:22:54;32.08;;;23.92;;
33634;SDS011;19972;54.360;10.076;2022-08-04T05:25:24;13.68;;;5.10;;
33634;SDS011;19972;54.360;10.076;2022-08-04T05:28:17;12.05;;;4.13;;
33634;SDS011;19972;54.360;10.076;2022-08-04T05:30:46;13.88;;;3.53;;
33634;SDS011;19972;54.360;10.076;2022-08-04T05:33:26;15.85;;;3.33;;
33634;SDS011;19972;54.360;10.076;2022-08-04T05:35:59;7.55;;;3.10;;
33634;SDS011;19972;54.360;10.076;2022-08-04T05:38:52;11.93;;;2.88;;
33634;SDS011;19972;54.360;10.076;2022-08-04T05:41:20;9.52;;;3.00;;
33634;SDS011;19972;54.360;10.076;2022-08-04T05:43:57;11.45;;;3.20;;
33634;SDS011;19972;54.360;10.076;2022-08-04T05:46:24;10.02;;;3.13;;
33634;SDS011;19972;54.360;10.076;2022-08-04T05:48:52;14.43;;;2.92;;
33634;SDS011;19972;54.360;10.076;2022-08-04T05:51:18;8.68;;;3.00;;
33634;SDS011;19972;54.360;10.076;2022-08-04T05:53:46;17.27;;;3.80;;
33634;SDS011;19972;54.360;10.076;2022-08-04T05:56:13;9.68;;;3.25;;
33634;SDS011;19972;54.360;10.076;2022-08-04T06:01:09;9.43;;;3.15;;
33634;SDS011;19972;54.360;10.076;2022-08-04T06:03:37;11.55;;;3.45;;
33634;SDS011;19972;54.360;10.076;2022-08-04T06:06:05;11.18;;;3.08;;
33634;SDS011;19972;54.360;10.076;2022-08-04T06:08:32;9.43;;;3.97;;
33634;SDS011;19972;54.360;10.076;2022-08-04T06:11:02;14.73;;;4.00;;
33634;SDS011;19972;54.360;10.076;2022-08-04T06:13:41;13.55;;;5.40;;
33634;SDS011;19972;54.360;10.076;2022-08-04T06:16:17;12.80;;;4.28;;
33634;SDS011;19972;54.360;10.076;2022-08-04T06:18:56;17.83;;;3.78;;
33634;SDS011;19972;54.360;10.076;2022-08-04T06:21:47;12.00;;;3.15;;
33634;SDS011;19972;54.360;10.076;2022-08-04T06:24:16;10.98;;;3.20;;
33634;SDS011;19972;54.360;10.076;2022-08-04T06:26:45;9.60;;;2.60;;
33634;SDS011;19972;54.360;10.076;2022-08-04T06:29:16;11.82;;;2.67;;
33634;SDS011;19972;54.360;10.076;2022-08-04T06:31:50;11.30;;;2.88;;
33634;SDS011;19972;54.360;10.076;2022-08-04T06:34:44;22.30;;;4.55;;
33634;SDS011;19972;54.360;10.076;2022-08-04T06:37:10;14.57;;;2.83;;
33634;SDS011;19972;54.360;10.076;2022-08-04T06:39:58;4.53;;;2.15;;
33634;SDS011;19972;54.360;10.076;2022-08-04T06:42:48;16.95;;;2.95;;
33634;SDS011;19972;54.360;10.076;2022-08-04T06:45:16;13.38;;;2.50;;
33634;SDS011;19972;54.360;10.076;2022-08-04T06:47:45;12.23;;;2.45;;
33634;SDS011;19972;54.360;10.076;2022-08-04T06:50:13;12.43;;;2.97;;
33634;SDS011;19972;54.360;10.076;2022-08-04T06:55:27;6.70;;;2.33;;
33634;SDS011;19972;54.360;10.076;2022-08-04T06:57:54;8.50;;;2.60;;
33634;SDS011;19972;54.360;10.076;2022-08-04T07:00:28;17.02;;;3.00;;
33634;SDS011;19972;54.360;10.076;2022-08-04T07:02:56;18.13;;;2.92;;
33634;SDS011;19972;54.360;10.076;2022-08-04T07:05:23;8.73;;;2.63;;
33634;SDS011;19972;54.360;10.076;2022-08-04T07:07:50;9.40;;;2.50;;
33634;SDS011;19972;54.360;10.076;2022-08-04T07:10:23;13.88;;;2.80;;
33634;SDS011;19972;54.360;10.076;2022-08-04T07:12:53;11.32;;;2.70;;
33634;SDS011;19972;54.360;10.076;2022-08-04T07:15:21;8.90;;;2.83;;
33634;SDS011;19972;54.360;10.076;2022-08-04T07:17:48;7.30;;;2.40;;
33634;SDS011;19972;54.360;10.076;2022-08-04T07:20:17;9.90;;;2.53;;
33634;SDS011;19972;54.360;10.076;2022-08-04T07:23:01;11.98;;;2.80;;
33634;SDS011;19972;54.360;10.076;2022-08-04T07:25:35;11.00;;;3.22;;
33634;SDS011;19972;54.360;10.076;2022-08-04T07:28:22;8.82;;;2.50;;
33634;SDS011;19972;54.360;10.076;2022-08-04T07:30:51;9.95;;;2.70;;
33634;SDS011;19972;54.360;10.076;2022-08-04T07:33:19;13.25;;;2.80;;
33634;SDS011;19972;54.360;10.076;2022-08-04T07:35:48;9.00;;;2.60;;
33634;SDS011;19972;54.360;10.076;2022-08-04T07:38:36;10.25;;;2.63;;
33634;SDS011;19972;54.360;10.076;2022-08-04T07:41:19;8.35;;;2.45;;
33634;SDS011;19972;54.360;10.076;2022-08-04T07:44:05;11.70;;;2.75;;
33634;SDS011;19972;54.360;10.076;2022-08-04T07:46:33;7.80;;;2.45;;
33634;SDS011;19972;54.360;10.076;2022-08-04T07:49:01;13.32;;;2.28;;
33634;SDS011;19972;54.360;10.076;2022-08-04T07:51:29;11.13;;;2.38;;
33634;SDS011;19972;54.360;10.076;2022-08-04T07:53:57;13.07;;;2.42;;
33634;SDS011;19972;54.360;10.076;2022-08-04T07:56:25;13.45;;;2.50;;
33634;SDS011;19972;54.360;10.076;2022-08-04T07:58:53;9.05;;;2.53;;
33634;SDS011;19972;54.360;10.076;2022-08-04T08:01:21;7.05;;;2.80;;
33634;SDS011;19972;54.360;10.076;2022-08-04T08:06:17;14.07;;;2.72;;
33634;SDS011;19972;54.360;10.076;2022-08-04T08:08:59;10.52;;;2.30;;
33634;SDS011;19972;54.360;10.076;2022-08-04T08:11:38;18.27;;;3.15;;
33634;SDS011;19972;54.360;10.076;2022-08-04T08:14:24;10.15;;;2.47;;
33634;SDS011;19972;54.360;10.076;2022-08-04T08:16:53;10.43;;;2.47;;
33634;SDS011;19972;54.360;10.076;2022-08-04T08:19:19;13.60;;;2.85;;
33634;SDS011;19972;54.360;10.076;2022-08-04T08:21:46;11.45;;;3.00;;
33634;SDS011;19972;54.360;10.076;2022-08-04T08:24:25;7.10;;;2.50;;
33634;SDS011;19972;54.360;10.076;2022-08-04T08:26:56;15.20;;;2.78;;
33634;SDS011;19972;54.360;10.076;2022-08-04T08:29:23;11.82;;;2.63;;
33634;SDS011;19972;54.360;10.076;2022-08-04T08:31:51;15.27;;;2.60;;
33634;SDS011;19972;54.360;10.076;2022-08-04T08:34:25;10.13;;;2.58;;
33634;SDS011;19972;54.360;10.076;2022-08-04T08:36:56;9.77;;;2.83;;
33634;SDS011;19972;54.360;10.076;2022-08-04T08:39:30;12.80;;;2.88;;
33634;SDS011;19972;54.360;10.076;2022-08-04T08:50:46;11.18;;;2.05;;
33634;SDS011;19972;54.360;10.076;2022-08-04T08:56:15;6.95;;;2.40;;
33634;SDS011;19972;54.360;10.076;2022-08-04T09:02:02;12.73;;;2.63;;
33634;SDS011;19972;54.360;10.076;2022-08-04T09:04:41;9.57;;;2.40;;
33634;SDS011;19972;54.360;10.076;2022-08-04T09:10:25;6.95;;;1.98;;
33634;SDS011;19972;54.360;10.076;2022-08-04T09:13:03;5.97;;;1.67;;
33634;SDS011;19972;54.360;10.076;2022-08-04T09:21:16;15.02;;;1.80;;
33634;SDS011;19972;54.360;10.076;2022-08-04T09:23:50;5.35;;;1.90;;
33634;SDS011;19972;54.360;10.076;2022-08-04T09:26:35;8.27;;;1.90;;
33634;SDS011;19972;54.360;10.076;2022-08-04T09:37:41;5.35;;;1.50;;
33634;SDS011;19972;54.360;10.076;2022-08-04T09:40:36;4.82;;;1.65;;
33634;SDS011;19972;54.360;10.076;2022-08-04T09:49:31;7.63;;;1.50;;
33634;SDS011;19972;54.360;10.076;2022-08-04T09:52:06;6.45;;;1.50;;
33634;SDS011;19972;54.360;10.076;2022-08-04T09:54:44;7.78;;;1.80;;
33634;SDS011;19972;54.360;10.076;2022-08-04T09:57:38;7.00;;;1.48;;
33634;SDS011;19972;54.360;10.076;2022-08-04T10:00:12;3.88;;;1.27;;
33634;SDS011;19972;54.360;10.076;2022-08-04T10:02:50;3.50;;;1.50;;
33634;SDS011;19972;54.360;10.076;2022-08-04T10:05:21;5.80;;;1.50;;
33634;SDS011;19972;54.360;10.076;2022-08-04T10:19:05;3.42;;;1.30;;
33634;SDS011;19972;54.360;10.076;2022-08-04T10:22:00;5.03;;;1.38;;
33634;SDS011;19972;54.360;10.076;2022-08-04T10:24:55;6.35;;;1.55;;
33634;SDS011;19972;54.360;10.076;2022-08-04T10:27:54;4.80;;;1.35;;
33634;SDS011;19972;54.360;10.076;2022-08-04T10:30:25;11.77;;;1.90;;
33634;SDS011;19972;54.360;10.076;2022-08-04T10:33:07;6.32;;;1.55;;
33634;SDS011;19972;54.360;10.076;2022-08-04T10:35:44;3.30;;;1.20;;
33634;SDS011;19972;54.360;10.076;2022-08-04T10:38:24;4.63;;;3.17;;
33634;SDS011;19972;54.360;10.076;2022-08-04T10:40:59;6.65;;;1.60;;
33634;SDS011;19972;54.360;10.076;2022-08-04T10:46:09;5.93;;;2.05;;
33634;SDS011;19972;54.360;10.076;2022-08-04T10:49:03;3.83;;;1.30;;
33634;SDS011;19972;54.360;10.076;2022-08-04T10:54:42;14.05;;;1.27;;
33634;SDS011;19972;54.360;10.076;2022-08-04T11:00:00;5.28;;;1.45;;
33634;SDS011;19972;54.360;10.076;2022-08-04T11:02:52;5.18;;;1.48;;
33634;SDS011;19972;54.360;10.076;2022-08-04T11:08:14;4.10;;;1.35;;
33634;SDS011;19972;54.360;10.076;2022-08-04T11:10:50;6.30;;;1.42;;
33634;SDS011;19972;54.360;10.076;2022-08-04T11:13:17;5.97;;;1.52;;
33634;SDS011;19972;54.360;10.076;2022-08-04T11:15:54;7.85;;;1.67;;
33634;SDS011;19972;54.360;10.076;2022-08-04T11:21:10;6.10;;;1.90;;
33634;SDS011;19972;54.360;10.076;2022-08-04T11:23:44;3.92;;;1.73;;
33634;SDS011;19972;54.360;10.076;2022-08-04T11:26:19;5.70;;;1.42;;
33634;SDS011;19972;54.360;10.076;2022-08-04T11:29:00;8.55;;;1.77;;
33634;SDS011;19972;54.360;10.076;2022-08-04T11:31:35;5.45;;;1.83;;
33634;SDS011;19972;54.360;10.076;2022-08-04T11:34:20;2.85;;;1.33;;
33634;SDS011;19972;54.360;10.076;2022-08-04T11:36:53;5.22;;;1.40;;
33634;SDS011;19972;54.360;10.076;2022-08-04T11:42:19;3.03;;;1.00;;
33634;SDS011;19972;54.360;10.076;2022-08-04T11:44:50;3.10;;;1.20;;
33634;SDS011;19972;54.360;10.076;2022-08-04T11:47:24;3.58;;;1.10;;
33634;SDS011;19972;54.360;10.076;2022-08-04T11:50:17;4.57;;;1.38;;
33634;SDS011;19972;54.360;10.076;2022-08-04T11:52:48;4.88;;;1.02;;
33634;SDS011;19972;54.360;10.076;2022-08-04T11:55:18;4.80;;;1.15;;
33634;SDS011;19972;54.360;10.076;2022-08-04T11:57:47;2.35;;;1.23;;
33634;SDS011;19972;54.360;10.076;2022-08-04T12:00:19;2.70;;;1.13;;
33634;SDS011;19972;54.360;10.076;2022-08-04T12:05:48;2.60;;;1.23;;
33634;SDS011;19972;54.360;10.076;2022-08-04T12:08:39;5.72;;;1.33;;
33634;SDS011;19972;54.360;10.076;2022-08-04T12:12:20;5.85;;;1.40;;
33634;SDS011;19972;54.360;10.076;2022-08-04T12:17:39;3.92;;;1.50;;
33634;SDS011;19972;54.360;10.076;2022-08-04T12:20:19;3.00;;;1.45;;
33634;SDS011;19972;54.360;10.076;2022-08-04T12:23:07;9.43;;;1.60;;
33634;SDS011;19972;54.360;10.076;2022-08-04T12:25:40;5.60;;;1.50;;
33634;SDS011;19972;54.360;10.076;2022-08-04T12:28:15;3.65;;;1.50;;
33634;SDS011;19972;54.360;10.076;2022-08-04T12:30:51;5.97;;;1.50;;
33634;SDS011;19972;54.360;10.076;2022-08-04T12:33:37;6.60;;;1.80;;
33634;SDS011;19972;54.360;10.076;2022-08-04T12:39:09;8.52;;;2.00;;
33634;SDS011;19972;54.360;10.076;2022-08-04T12:41:46;2.63;;;1.75;;
33634;SDS011;19972;54.360;10.076;2022-08-04T12:44:35;5.10;;;2.00;;
33634;SDS011;19972;54.360;10.076;2022-08-04T12:47:06;8.60;;;3.88;;
33634;SDS011;19972;54.360;10.076;2022-08-04T12:50:01;4.40;;;1.88;;
33634;SDS011;19972;54.360;10.076;2022-08-04T12:52:30;2.95;;;1.90;;
33634;SDS011;19972;54.360;10.076;2022-08-04T12:55:28;6.55;;;2.83;;
33634;SDS011;19972;54.360;10.076;2022-08-04T12:58:00;5.68;;;2.20;;
33634;SDS011;19972;54.360;10.076;2022-08-04T13:00:33;5.10;;;1.95;;
33634;SDS011;19972;54.360;10.076;2022-08-04T13:03:14;3.40;;;1.88;;
33634;SDS011;19972;54.360;10.076;2022-08-04T13:05:43;3.67;;;2.03;;
33634;SDS011;19972;54.360;10.076;2022-08-04T13:08:10;2.80;;;1.90;;
33634;SDS011;19972;54.360;10.076;2022-08-04T13:10:39;7.78;;;1.90;;
33634;SDS011;19972;54.360;10.076;2022-08-04T13:13:16;5.40;;;1.90;;
33634;SDS011;19972;54.360;10.076;2022-08-04T13:15:53;2.72;;;1.50;;
33634;SDS011;19972;54.360;10.076;2022-08-04T13:18:23;5.82;;;2.15;;
33634;SDS011;19972;54.360;10.076;2022-08-04T13:21:12;4.50;;;1.70;;
33634;SDS011;19972;54.360;10.076;2022-08-04T13:23:52;9.80;;;1.92;;
33634;SDS011;19972;54.360;10.076;2022-08-04T13:29:40;3.40;;;1.98;;
33634;SDS011;19972;54.360;10.076;2022-08-04T13:32:29;4.00;;;1.83;;
33634;SDS011;19972;54.360;10.076;2022-08-04T13:34:59;4.30;;;1.60;;
33634;SDS011;19972;54.360;10.076;2022-08-04T13:37:32;2.40;;;1.50;;
33634;SDS011;19972;54.360;10.076;2022-08-04T13:40:02;6.03;;;1.92;;
33634;SDS011;19972;54.360;10.076;2022-08-04T13:42:30;6.55;;;1.75;;
33634;SDS011;19972;54.360;10.076;2022-08-04T13:45:01;8.65;;;2.13;;
33634;SDS011;19972;54.360;10.076;2022-08-04T13:47:30;3.08;;;1.90;;
33634;SDS011;19972;54.360;10.076;2022-08-04T13:52:38;4.38;;;1.63;;
33634;SDS011;19972;54.360;10.076;2022-08-04T13:55:07;6.60;;;2.00;;
33634;SDS011;19972;54.360;10.076;2022-08-04T13:57:44;3.65;;;1.90;;
33634;SDS011;19972;54.360;10.076;2022-08-04T14:00:15;3.75;;;1.80;;
33634;SDS011;19972;54.360;10.076;2022-08-04T14:02:58;7.05;;;2.10;;
33634;SDS011;19972;54.360;10.076;2022-08-04T14:05:28;4.78;;;1.88;;
33634;SDS011;19972;54.360;10.076;2022-08-04T14:08:21;8.95;;;1.95;;
33634;SDS011;19972;54.360;10.076;2022-08-04T14:10:54;4.22;;;1.80;;
33634;SDS011;19972;54.360;10.076;2022-08-04T14:13:29;2.65;;;2.25;;
33634;SDS011;19972;54.360;10.076;2022-08-04T14:16:19;8.70;;;1.90;;
33634;SDS011;19972;54.360;10.076;2022-08-04T14:18:47;2.65;;;2.15;;
33634;SDS011;19972;54.360;10.076;2022-08-04T14:23:51;4.30;;;2.10;;
33634;SDS011;19972;54.360;10.076;2022-08-04T14:26:20;8.45;;;2.22;;
33634;SDS011;19972;54.360;10.076;2022-08-04T14:29:15;9.02;;;2.30;;
33634;SDS011;19972;54.360;10.076;2022-08-04T14:31:58;9.48;;;2.60;;
33634;SDS011;19972;54.360;10.076;2022-08-04T14:34:28;11.73;;;2.83;;
33634;SDS011;19972;54.360;10.076;2022-08-04T14:36:56;16.70;;;2.83;;
33634;SDS011;19972;54.360;10.076;2022-08-04T14:39:44;8.70;;;2.92;;
33634;SDS011;19972;54.360;10.076;2022-08-04T14:42:39;14.13;;;3.17;;
33634;SDS011;19972;54.360;10.076;2022-08-04T14:45:06;10.27;;;3.05;;
33634;SDS011;19972;54.360;10.076;2022-08-04T14:47:37;11.63;;;3.00;;
33634;SDS011;19972;54.360;10.076;2022-08-04T14:50:06;10.93;;;3.17;;
33634;SDS011;19972;54.360;10.076;2022-08-04T14:52:35;11.57;;;3.00;;
33634;SDS011;19972;54.360;10.076;2022-08-04T14:55:35;11.52;;;2.83;;
33634;SDS011;19972;54.360;10.076;2022-08-04T14:57:55;10.50;;;2.97;;
33634;SDS011;19972;54.360;10.076;2022-08-04T15:00:42;9.53;;;2.63;;
33634;SDS011;19972;54.360;10.076;2022-08-04T15:03:09;12.20;;;2.63;;
33634;SDS011;19972;54.360;10.076;2022-08-04T15:05:36;8.93;;;2.70;;
33634;SDS011;19972;54.360;10.076;2022-08-04T15:08:25;14.55;;;3.28;;
33634;SDS011;19972;54.360;10.076;2022-08-04T15:10:57;16.10;;;3.88;;
33634;SDS011;19972;54.360;10.076;2022-08-04T15:13:25;15.60;;;2.92;;
33634;SDS011;19972;54.360;10.076;2022-08-04T15:15:52;13.73;;;3.45;;
33634;SDS011;19972;54.360;10.076;2022-08-04T15:18:34;10.50;;;2.92;;
33634;SDS011;19972;54.360;10.076;2022-08-04T15:21:02;11.75;;;3.00;;
33634;SDS011;19972;54.360;10.076;2022-08-04T15:23:30;13.27;;;3.08;;
33634;SDS011;19972;54.360;10.076;2022-08-04T15:26:06;8.32;;;2.78;;
33634;SDS011;19972;54.360;10.076;2022-08-04T15:28:44;9.45;;;2.45;;
33634;SDS011;19972;54.360;10.076;2022-08-04T15:31:15;9.20;;;3.08;;
33634;SDS011;19972;54.360;10.076;2022-08-04T15:34:08;9.52;;;2.58;;
33634;SDS011;19972;54.360;10.076;2022-08-04T15:42:09;15.15;;;3.63;;
33634;SDS011;19972;54.360;10.076;2022-08-04T15:47:28;11.65;;;3.03;;
33634;SDS011;19972;54.360;10.076;2022-08-04T15:50:08;10.13;;;3.13;;
33634;SDS011;19972;54.360;10.076;2022-08-04T15:55:36;11.73;;;2.85;;
33634;SDS011;19972;54.360;10.076;2022-08-04T15:58:10;12.85;;;3.28;;
33634;SDS011;19972;54.360;10.076;2022-08-04T16:16:28;13.57;;;2.97;;
33634;SDS011;19972;54.360;10.076;2022-08-04T16:22:12;10.10;;;3.60;;
33634;SDS011;19972;54.360;10.076;2022-08-04T16:24:58;12.27;;;3.10;;
33634;SDS011;19972;54.360;10.076;2022-08-04T16:27:39;13.85;;;3.40;;
33634;SDS011;19972;54.360;10.076;2022-08-04T16:30:11;10.20;;;3.10;;
33634;SDS011;19972;54.360;10.076;2022-08-04T16:32:41;10.85;;;3.42;;
33634;SDS011;19972;54.360;10.076;2022-08-04T16:37:56;13.80;;;2.70;;
33634;SDS011;19972;54.360;10.076;2022-08-04T16:40:38;9.38;;;2.78;;
33634;SDS011;19972;54.360;10.076;2022-08-04T16:48:09;17.60;;;3.08;;
33634;SDS011;19972;54.360;10.076;2022-08-04T16:50:47;11.25;;;3.13;;
33634;SDS011;19972;54.360;10.076;2022-08-04T16:53:19;14.73;;;2.97;;
33634;SDS011;19972;54.360;10.076;2022-08-04T16:56:06;7.53;;;2.90;;
33634;SDS011;19972;54.360;10.076;2022-08-04T16:58:35;15.55;;;2.63;;
33634;SDS011;19972;54.360;10.076;2022-08-04T17:01:15;9.80;;;3.00;;
33634;SDS011;19972;54.360;10.076;2022-08-04T17:03:59;13.30;;;3.25;;
33634;SDS011;19972;54.360;10.076;2022-08-04T17:06:33;11.50;;;3.10;;
33634;SDS011;19972;54.360;10.076;2022-08-04T17:09:06;12.18;;;3.40;;
33634;SDS011;19972;54.360;10.076;2022-08-04T17:11:36;6.85;;;2.72;;
33634;SDS011;19972;54.360;10.076;2022-08-04T17:14:02;12.60;;;2.95;;
33634;SDS011;19972;54.360;10.076;2022-08-04T17:16:32;9.75;;;3.28;;
33634;SDS011;19972;54.360;10.076;2022-08-04T17:19:00;12.77;;;3.25;;
33634;SDS011;19972;54.360;10.076;2022-08-04T17:21:28;10.35;;;2.60;;
33634;SDS011;19972;54.360;10.076;2022-08-04T17:23:57;6.88;;;2.80;;
33634;SDS011;19972;54.360;10.076;2022-08-04T17:26:43;7.10;;;2.83;;
33634;SDS011;19972;54.360;10.076;2022-08-04T17:29:20;6.90;;;2.60;;
33634;SDS011;19972;54.360;10.076;2022-08-04T17:32:16;11.20;;;3.35;;
33634;SDS011;19972;54.360;10.076;2022-08-04T17:34:53;10.93;;;2.78;;
33634;SDS011;19972;54.360;10.076;2022-08-04T17:37:22;7.95;;;2.75;;
33634;SDS011;19972;54.360;10.076;2022-08-04T17:40:08;7.32;;;2.75;;
33634;SDS011;19972;54.360;10.076;2022-08-04T17:42:36;9.40;;;2.53;;
33634;SDS011;19972;54.360;10.076;2022-08-04T17:45:05;7.60;;;2.85;;
33634;SDS011;19972;54.360;10.076;2022-08-04T17:47:57;10.82;;;2.58;;
33634;SDS011;19972;54.360;10.076;2022-08-04T17:50:24;17.90;;;2.72;;
33634;SDS011;19972;54.360;10.076;2022-08-04T17:52:57;5.18;;;2.17;;
33634;SDS011;19972;54.360;10.076;2022-08-04T17:55:35;9.10;;;2.10;;
33634;SDS011;19972;54.360;10.076;2022-08-04T17:58:18;10.88;;;2.30;;
33634;SDS011;19972;54.360;10.076;2022-08-04T18:00:57;9.82;;;2.35;;
33634;SDS011;19972;54.360;10.076;2022-08-04T18:06:20;5.80;;;2.30;;
33634;SDS011;19972;54.360;10.076;2022-08-04T18:08:52;4.78;;;2.33;;
33634;SDS011;19972;54.360;10.076;2022-08-04T18:11:24;5.90;;;2.00;;
33634;SDS011;19972;54.360;10.076;2022-08-04T18:14:06;11.00;;;2.20;;
33634;SDS011;19972;54.360;10.076;2022-08-04T18:16:41;10.77;;;2.08;;
33634;SDS011;19972;54.360;10.076;2022-08-04T18:19:13;6.25;;;2.33;;
33634;SDS011;19972;54.360;10.076;2022-08-04T18:21:43;5.30;;;2.03;;
33634;SDS011;19972;54.360;10.076;2022-08-04T18:24:29;5.85;;;2.10;;
33634;SDS011;19972;54.360;10.076;2022-08-04T18:27:19;6.45;;;2.20;;
33634;SDS011;19972;54.360;10.076;2022-08-04T18:29:49;9.95;;;2.15;;
33634;SDS011;19972;54.360;10.076;2022-08-04T18:32:36;8.43;;;2.20;;
33634;SDS011;19972;54.360;10.076;2022-08-04T18:35:23;4.70;;;1.90;;
33634;SDS011;19972;54.360;10.076;2022-08-04T18:38:10;4.05;;;2.30;;
33634;SDS011;19972;54.360;10.076;2022-08-04T18:40:49;7.65;;;2.15;;
33634;SDS011;19972;54.360;10.076;2022-08-04T18:43:19;7.85;;;1.95;;
33634;SDS011;19972;54.360;10.076;2022-08-04T18:45:55;13.05;;;2.28;;
33634;SDS011;19972;54.360;10.076;2022-08-04T18:48:24;9.18;;;4.03;;
33634;SDS011;19972;54.360;10.076;2022-08-04T18:51:02;8.95;;;2.15;;
33634;SDS011;19972;54.360;10.076;2022-08-04T18:53:47;5.22;;;2.25;;
33634;SDS011;19972;54.360;10.076;2022-08-04T18:56:24;6.90;;;2.20;;
33634;SDS011;19972;54.360;10.076;2022-08-04T18:59:00;9.30;;;2.33;;
33634;SDS011;19972;54.360;10.076;2022-08-04T19:01:29;2.92;;;2.00;;
33634;SDS011;19972;54.360;10.076;2022-08-04T19:04:16;4.60;;;2.13;;
33634;SDS011;19972;54.360;10.076;2022-08-04T19:07:03;2.92;;;2.10;;
33634;SDS011;19972;54.360;10.076;2022-08-04T19:12:23;6.03;;;1.98;;
33634;SDS011;19972;54.360;10.076;2022-08-04T19:14:53;4.18;;;1.80;;
33634;SDS011;19972;54.360;10.076;2022-08-04T19:17:24;6.65;;;2.42;;
33634;SDS011;19972;54.360;10.076;2022-08-04T19:20:11;8.15;;;2.42;;
33634;SDS011;19972;54.360;10.076;2022-08-04T19:22:51;7.60;;;2.22;;
33634;SDS011;19972;54.360;10.076;2022-08-04T19:25:38;5.32;;;2.30;;
33634;SDS011;19972;54.360;10.076;2022-08-04T19:28:25;4.82;;;2.25;;
33634;SDS011;19972;54.360;10.076;2022-08-04T19:30:55;4.47;;;2.10;;
33634;SDS011;19972;54.360;10.076;2022-08-04T19:33:23;6.57;;;2.25;;
33634;SDS011;19972;54.360;10.076;2022-08-04T19:35:50;6.72;;;2.55;;
33634;SDS011;19972;54.360;10.076;2022-08-04T19:38:17;10.60;;;2.35;;
33634;SDS011;19972;54.360;10.076;2022-08-04T19:43:17;9.88;;;2.50;;
33634;SDS011;19972;54.360;10.076;2022-08-04T19:45:48;11.32;;;2.33;;
33634;SDS011;19972;54.360;10.076;2022-08-04T19:48:15;10.97;;;2.40;;
33634;SDS011;19972;54.360;10.076;2022-08-04T19:50:45;10.18;;;2.65;;
33634;SDS011;19972;54.360;10.076;2022-08-04T19:53:11;11.10;;;2.33;;
33634;SDS011;19972;54.360;10.076;2022-08-04T19:55:44;6.53;;;2.47;;
33634;SDS011;19972;54.360;10.076;2022-08-04T19:58:15;7.50;;;2.50;;
33634;SDS011;19972;54.360;10.076;2022-08-04T20:00:42;7.60;;;2.40;;
33634;SDS011;19972;54.360;10.076;2022-08-04T20:03:16;5.45;;;2.35;;
33634;SDS011;19972;54.360;10.076;2022-08-04T20:05:46;15.02;;;3.03;;
33634;SDS011;19972;54.360;10.076;2022-08-04T20:08:33;8.55;;;3.00;;
33634;SDS011;19972;54.360;10.076;2022-08-04T20:11:00;7.47;;;2.38;;
33634;SDS011;19972;54.360;10.076;2022-08-04T20:13:26;13.50;;;2.53;;
33634;SDS011;19972;54.360;10.076;2022-08-04T20:16:02;13.98;;;3.00;;
33634;SDS011;19972;54.360;10.076;2022-08-04T20:18:47;12.10;;;2.78;;
33634;SDS011;19972;54.360;10.076;2022-08-04T20:21:24;8.77;;;2.95;;